sensor_id;sensor_type;location;lat;lon;timestamp;pressure;altitude;pressure_sealevel;temperature;humidity
62600;BME280;48671;48.922;2.346;2023-01-30T00:01:40;102489.19;;;5.58;70.06
62600;BME280;48671;48.922;2.346;2023-01-30T00:04:06;102516.91;;;5.73;70.36
62600;BME280;48671;48.922;2.346;2023-01-30T00:06:33;102502.19;;;5.67;70.24
62600;BME280;48671;48.922;2.346;2023-01-30T00:08:58;102497.00;;;5.64;70.08
62600;BME280;48671;48.922;2.346;2023-01-30T00:11:24;102505.63;;;5.68;69.89
62600;BME280;48671;48.922;2.346;2023-01-30T00:13:50;102504.81;;;5.72;69.88
62600;BME280;48671;48.922;2.346;2023-01-30T00:16:16;102492.72;;;5.68;70.50
62600;BME280;48671;48.922;2.346;2023-01-30T00:18:42;102489.31;;;5.70;70.50
62600;BME280;48671;48.922;2.346;2023-01-30T00:21:10;102471.19;;;5.66;70.26
62600;BME280;48671;48.922;2.346;2023-01-30T00:23:36;102466.09;;;5.73;70.03
62600;BME280;48671;48.922;2.346;2023-01-30T00:26:02;102465.28;;;5.76;70.03
62600;BME280;48671;48.922;2.346;2023-01-30T00:28:28;102468.69;;;5.75;70.26
62600;BME280;48671;48.922;2.346;2023-01-30T00:30:54;102457.50;;;5.73;70.41
62600;BME280;48671;48.922;2.346;2023-01-30T00:33:22;102466.13;;;5.76;70.41
62600;BME280;48671;48.922;2.346;2023-01-30T00:35:49;102465.31;;;5.79;70.42
62600;BME280;48671;48.922;2.346;2023-01-30T00:38:15;102463.59;;;5.79;70.13
62600;BME280;48671;48.922;2.346;2023-01-30T00:40:41;102455.00;;;5.83;70.04
62600;BME280;48671;48.922;2.346;2023-01-30T00:43:09;102457.63;;;5.86;70.43
62600;BME280;48671;48.922;2.346;2023-01-30T00:45:55;102435.22;;;5.85;70.01
62600;BME280;48671;48.922;2.346;2023-01-30T00:48:39;102437.03;;;5.93;70.14
62600;BME280;48671;48.922;2.346;2023-01-30T00:51:04;102437.84;;;5.92;70.10
62600;BME280;48671;48.922;2.346;2023-01-30T00:53:30;102428.34;;;5.86;69.90
62600;BME280;48671;48.922;2.346;2023-01-30T00:55:55;102426.59;;;5.83;70.06
62600;BME280;48671;48.922;2.346;2023-01-30T00:58:22;102411.91;;;5.81;70.33
62600;BME280;48671;48.922;2.346;2023-01-30T01:00:48;102416.22;;;5.82;70.74
62600;BME280;48671;48.922;2.346;2023-01-30T01:03:13;102397.25;;;5.72;70.48
62600;BME280;48671;48.922;2.346;2023-01-30T01:05:39;102420.59;;;5.86;70.12
62600;BME280;48671;48.922;2.346;2023-01-30T01:08:04;102401.56;;;5.78;70.60
62600;BME280;48671;48.922;2.346;2023-01-30T01:10:31;102401.53;;;5.75;70.11
62600;BME280;48671;48.922;2.346;2023-01-30T01:12:56;102393.75;;;5.72;70.71
62600;BME280;48671;48.922;2.346;2023-01-30T01:15:22;102410.16;;;5.78;70.56
62600;BME280;48671;48.922;2.346;2023-01-30T01:17:49;102388.53;;;5.66;70.52
62600;BME280;48671;48.922;2.346;2023-01-30T01:20:15;102386.88;;;5.71;70.65
62600;BME280;48671;48.922;2.346;2023-01-30T01:22:41;102387.75;;;5.74;69.68
62600;BME280;48671;48.922;2.346;2023-01-30T01:25:08;102386.06;;;5.78;70.37
62600;BME280;48671;48.922;2.346;2023-01-30T01:27:34;102386.06;;;5.76;70.00
62600;BME280;48671;48.922;2.346;2023-01-30T01:29:59;102386.03;;;5.75;69.78
62600;BME280;48671;48.922;2.346;2023-01-30T01:32:25;102378.28;;;5.73;70.23
62600;BME280;48671;48.922;2.346;2023-01-30T01:34:50;102376.59;;;5.77;69.46
62600;BME280;48671;48.922;2.346;2023-01-30T01:37:16;102386.03;;;5.75;69.72
62600;BME280;48671;48.922;2.346;2023-01-30T01:39:41;102380.03;;;5.76;69.76
62600;BME280;48671;48.922;2.346;2023-01-30T01:42:28;102380.03;;;5.77;69.64
62600;BME280;48671;48.922;2.346;2023-01-30T01:45:16;102355.03;;;5.72;69.89
62600;BME280;48671;48.922;2.346;2023-01-30T01:48:05;102366.25;;;5.78;69.80
62600;BME280;48671;48.922;2.346;2023-01-30T01:50:41;102369.69;;;5.74;69.91
62600;BME280;48671;48.922;2.346;2023-01-30T01:53:10;102381.84;;;5.87;70.25
62600;BME280;48671;48.922;2.346;2023-01-30T01:55:37;102376.66;;;5.87;69.92
62600;BME280;48671;48.922;2.346;2023-01-30T01:58:13;102367.16;;;5.82;69.85
62600;BME280;48671;48.922;2.346;2023-01-30T02:00:39;102379.28;;;5.91;69.96
62600;BME280;48671;48.922;2.346;2023-01-30T02:03:07;102350.81;;;5.83;69.58
62600;BME280;48671;48.922;2.346;2023-01-30T02:05:36;102342.16;;;5.76;70.05
62600;BME280;48671;48.922;2.346;2023-01-30T02:10:57;102367.19;;;5.86;69.92
62600;BME280;48671;48.922;2.346;2023-01-30T02:13:26;102360.28;;;5.84;69.83
62600;BME280;48671;48.922;2.346;2023-01-30T02:15:52;102363.72;;;5.80;70.01
62600;BME280;48671;48.922;2.346;2023-01-30T02:18:18;102370.63;;;5.84;70.21
62600;BME280;48671;48.922;2.346;2023-01-30T02:31:16;102372.47;;;5.96;69.66
62600;BME280;48671;48.922;2.346;2023-01-30T02:41:30;102363.00;;;5.98;69.75
62600;BME280;48671;48.922;2.346;2023-01-30T02:44:03;102356.13;;;6.00;69.61
62600;BME280;48671;48.922;2.346;2023-01-30T02:49:14;102369.91;;;5.99;69.78
62600;BME280;48671;48.922;2.346;2023-01-30T02:51:41;102361.22;;;5.92;69.71
62600;BME280;48671;48.922;2.346;2023-01-30T02:54:10;102378.47;;;5.93;69.37
62600;BME280;48671;48.922;2.346;2023-01-30T02:56:51;102365.50;;;5.92;69.49
62600;BME280;48671;48.922;2.346;2023-01-30T03:07:44;102363.78;;;5.89;69.99
62600;BME280;48671;48.922;2.346;2023-01-30T03:15:54;102360.25;;;5.81;70.72
62600;BME280;48671;48.922;2.346;2023-01-30T03:18:22;102360.28;;;5.79;71.10
62600;BME280;48671;48.922;2.346;2023-01-30T03:20:47;102366.31;;;5.83;70.90
62600;BME280;48671;48.922;2.346;2023-01-30T03:23:13;102367.16;;;5.82;71.40
62600;BME280;48671;48.922;2.346;2023-01-30T03:25:40;102368.91;;;5.83;71.09
62600;BME280;48671;48.922;2.346;2023-01-30T03:28:07;102357.66;;;5.76;71.35
62600;BME280;48671;48.922;2.346;2023-01-30T03:30:34;102362.88;;;5.82;71.63
62600;BME280;48671;48.922;2.346;2023-01-30T03:32:59;102354.22;;;5.77;71.62
62600;BME280;48671;48.922;2.346;2023-01-30T03:35:24;102355.97;;;5.81;71.36
62600;BME280;48671;48.922;2.346;2023-01-30T03:37:50;102355.06;;;5.76;72.27
62600;BME280;48671;48.922;2.346;2023-01-30T03:40:16;102361.97;;;5.76;72.10
62600;BME280;48671;48.922;2.346;2023-01-30T03:42:42;102369.72;;;5.82;72.36
62600;BME280;48671;48.922;2.346;2023-01-30T03:45:08;102362.00;;;5.83;72.20
62600;BME280;48671;48.922;2.346;2023-01-30T03:47:34;102336.13;;;5.77;72.24
62600;BME280;48671;48.922;2.346;2023-01-30T03:49:59;102332.69;;;5.72;72.78
62600;BME280;48671;48.922;2.346;2023-01-30T03:52:25;102333.56;;;5.77;71.93
62600;BME280;48671;48.922;2.346;2023-01-30T03:54:50;102337.94;;;5.89;71.84
62600;BME280;48671;48.922;2.346;2023-01-30T03:57:16;102334.47;;;5.82;72.09
62600;BME280;48671;48.922;2.346;2023-01-30T03:59:41;102332.72;;;5.84;72.02
62600;BME280;48671;48.922;2.346;2023-01-30T04:02:07;102336.22;;;5.90;71.51
62600;BME280;48671;48.922;2.346;2023-01-30T04:04:33;102343.97;;;5.91;72.14
62600;BME280;48671;48.922;2.346;2023-01-30T04:06:58;102323.28;;;5.83;72.04
62600;BME280;48671;48.922;2.346;2023-01-30T04:09:24;102330.19;;;5.87;71.29
62600;BME280;48671;48.922;2.346;2023-01-30T04:11:49;102341.44;;;5.93;72.24
62600;BME280;48671;48.922;2.346;2023-01-30T04:14:15;102316.34;;;5.76;72.25
62600;BME280;48671;48.922;2.346;2023-01-30T04:16:40;102343.13;;;5.89;72.43
62600;BME280;48671;48.922;2.346;2023-01-30T04:19:06;102334.47;;;5.87;72.55
62600;BME280;48671;48.922;2.346;2023-01-30T04:21:31;102321.56;;;5.85;72.12
62600;BME280;48671;48.922;2.346;2023-01-30T04:23:57;102311.19;;;5.81;72.08
62600;BME280;48671;48.922;2.346;2023-01-30T04:26:22;102319.88;;;5.89;72.05
62600;BME280;48671;48.922;2.346;2023-01-30T04:28:47;102308.66;;;5.85;72.15
62600;BME280;48671;48.922;2.346;2023-01-30T04:31:13;102294.84;;;5.79;72.29
62600;BME280;48671;48.922;2.346;2023-01-30T04:33:38;102304.34;;;5.86;72.46
62600;BME280;48671;48.922;2.346;2023-01-30T04:36:05;102292.25;;;5.85;72.36
62600;BME280;48671;48.922;2.346;2023-01-30T04:38:32;102308.66;;;5.87;72.65
62600;BME280;48671;48.922;2.346;2023-01-30T04:40:58;102312.97;;;5.86;72.62
62600;BME280;48671;48.922;2.346;2023-01-30T04:43:25;102306.03;;;5.81;73.04
62600;BME280;48671;48.922;2.346;2023-01-30T04:45:51;102316.41;;;5.92;72.81
62600;BME280;48671;48.922;2.346;2023-01-30T04:48:18;102320.72;;;5.91;72.89
62600;BME280;48671;48.922;2.346;2023-01-30T04:50:48;102322.47;;;5.92;73.17
62600;BME280;48671;48.922;2.346;2023-01-30T04:53:14;102298.31;;;5.82;73.09
62600;BME280;48671;48.922;2.346;2023-01-30T04:55:39;102323.31;;;5.90;73.29
62600;BME280;48671;48.922;2.346;2023-01-30T04:58:04;102314.69;;;5.87;72.71
62600;BME280;48671;48.922;2.346;2023-01-30T05:00:30;102311.22;;;5.87;73.01
62600;BME280;48671;48.922;2.346;2023-01-30T05:02:56;102319.00;;;5.92;72.89
62600;BME280;48671;48.922;2.346;2023-01-30T05:05:22;102333.69;;;5.93;73.07
62600;BME280;48671;48.922;2.346;2023-01-30T05:07:48;102315.53;;;5.88;73.13
62600;BME280;48671;48.922;2.346;2023-01-30T05:10:14;102301.75;;;5.84;73.18
62600;BME280;48671;48.922;2.346;2023-01-30T05:12:40;102297.47;;;5.86;73.29
62600;BME280;48671;48.922;2.346;2023-01-30T05:15:05;102318.19;;;5.94;73.12
62600;BME280;48671;48.922;2.346;2023-01-30T05:17:33;102321.69;;;5.99;73.29
62600;BME280;48671;48.922;2.346;2023-01-30T05:19:58;102320.78;;;5.93;73.48
62600;BME280;48671;48.922;2.346;2023-01-30T05:22:24;102326.00;;;5.99;73.51
62600;BME280;48671;48.922;2.346;2023-01-30T05:24:49;102287.13;;;5.86;72.90
62600;BME280;48671;48.922;2.346;2023-01-30T05:27:14;102301.84;;;5.94;73.87
62600;BME280;48671;48.922;2.346;2023-01-30T05:29:40;102293.16;;;5.92;73.57
62600;BME280;48671;48.922;2.346;2023-01-30T05:32:05;102310.44;;;5.94;73.55
62600;BME280;48671;48.922;2.346;2023-01-30T05:34:31;102305.31;;;5.96;73.41
62600;BME280;48671;48.922;2.346;2023-01-30T05:36:56;102293.22;;;5.93;73.78
62600;BME280;48671;48.922;2.346;2023-01-30T05:39:21;102297.53;;;5.94;74.00
62600;BME280;48671;48.922;2.346;2023-01-30T05:41:47;102285.41;;;5.92;73.83
62600;BME280;48671;48.922;2.346;2023-01-30T05:44:12;102299.28;;;5.97;74.37
62600;BME280;48671;48.922;2.346;2023-01-30T05:46:37;102294.13;;;6.01;73.97
62600;BME280;48671;48.922;2.346;2023-01-30T05:49:03;102288.13;;;6.02;74.58
62600;BME280;48671;48.922;2.346;2023-01-30T05:51:29;102291.56;;;6.03;73.88
62600;BME280;48671;48.922;2.346;2023-01-30T05:53:55;102286.34;;;5.97;73.77
62600;BME280;48671;48.922;2.346;2023-01-30T05:56:20;102282.03;;;5.94;73.64
62600;BME280;48671;48.922;2.346;2023-01-30T05:58:51;102291.53;;;6.01;74.24
62600;BME280;48671;48.922;2.346;2023-01-30T06:01:17;102273.41;;;5.94;74.38
62600;BME280;48671;48.922;2.346;2023-01-30T06:03:43;102276.88;;;5.96;74.28
62600;BME280;48671;48.922;2.346;2023-01-30T06:06:10;102276.06;;;6.03;74.24
62600;BME280;48671;48.922;2.346;2023-01-30T06:08:35;102280.34;;;6.04;74.06
62600;BME280;48671;48.922;2.346;2023-01-30T06:11:03;102292.44;;;6.06;74.40
62600;BME280;48671;48.922;2.346;2023-01-30T06:13:28;102283.78;;;6.01;74.40
62600;BME280;48671;48.922;2.346;2023-01-30T06:15:54;102275.19;;;6.02;74.58
62600;BME280;48671;48.922;2.346;2023-01-30T06:18:19;102286.44;;;6.12;74.54
62600;BME280;48671;48.922;2.346;2023-01-30T06:20:49;102272.66;;;6.08;74.74
62600;BME280;48671;48.922;2.346;2023-01-30T06:23:15;102280.41;;;6.15;74.28
62600;BME280;48671;48.922;2.346;2023-01-30T06:25:45;102275.22;;;6.05;74.61
62600;BME280;48671;48.922;2.346;2023-01-30T06:28:11;102276.94;;;6.05;74.25
62600;BME280;48671;48.922;2.346;2023-01-30T06:30:37;102301.97;;;6.17;75.24
62600;BME280;48671;48.922;2.346;2023-01-30T06:33:03;102288.97;;;6.07;74.51
62600;BME280;48671;48.922;2.346;2023-01-30T06:35:28;102298.50;;;6.12;74.62
62600;BME280;48671;48.922;2.346;2023-01-30T06:37:54;102303.66;;;6.12;74.80
62600;BME280;48671;48.922;2.346;2023-01-30T06:40:19;102314.00;;;6.18;74.60
62600;BME280;48671;48.922;2.346;2023-01-30T06:42:45;102296.75;;;6.10;74.78
62600;BME280;48671;48.922;2.346;2023-01-30T06:45:12;102290.72;;;6.07;74.94
62600;BME280;48671;48.922;2.346;2023-01-30T06:47:45;102314.03;;;6.19;75.34
62600;BME280;48671;48.922;2.346;2023-01-30T06:50:11;102326.09;;;6.20;75.09
62600;BME280;48671;48.922;2.346;2023-01-30T06:52:44;102314.00;;;6.15;75.34
62600;BME280;48671;48.922;2.346;2023-01-30T06:55:11;102323.50;;;6.16;75.57
62600;BME280;48671;48.922;2.346;2023-01-30T06:57:36;102322.63;;;6.14;75.34
62600;BME280;48671;48.922;2.346;2023-01-30T07:00:07;102325.22;;;6.17;75.14
62600;BME280;48671;48.922;2.346;2023-01-30T07:02:34;102335.56;;;6.20;75.26
62600;BME280;48671;48.922;2.346;2023-01-30T07:05:00;102321.75;;;6.15;75.73
62600;BME280;48671;48.922;2.346;2023-01-30T07:07:27;102325.19;;;6.14;76.84
62600;BME280;48671;48.922;2.346;2023-01-30T07:09:53;102326.06;;;6.17;76.45
62600;BME280;48671;48.922;2.346;2023-01-30T07:12:18;102330.34;;;6.10;75.45
62600;BME280;48671;48.922;2.346;2023-01-30T07:14:44;102346.78;;;6.23;75.57
62600;BME280;48671;48.922;2.346;2023-01-30T07:17:09;102344.19;;;6.20;74.94
62600;BME280;48671;48.922;2.346;2023-01-30T07:19:35;102351.09;;;6.20;76.87
62600;BME280;48671;48.922;2.346;2023-01-30T07:22:00;102351.94;;;6.19;76.08
62600;BME280;48671;48.922;2.346;2023-01-30T07:24:25;102354.50;;;6.17;76.31
62600;BME280;48671;48.922;2.346;2023-01-30T07:26:51;102357.97;;;6.21;75.91
62600;BME280;48671;48.922;2.346;2023-01-30T07:29:16;102372.63;;;6.23;75.71
62600;BME280;48671;48.922;2.346;2023-01-30T07:31:41;102357.09;;;6.20;76.34
62600;BME280;48671;48.922;2.346;2023-01-30T07:34:07;102357.09;;;6.20;76.27
62600;BME280;48671;48.922;2.346;2023-01-30T07:36:32;102358.84;;;6.21;76.52
62600;BME280;48671;48.922;2.346;2023-01-30T07:38:59;102366.59;;;6.24;76.31
62600;BME280;48671;48.922;2.346;2023-01-30T07:41:26;102372.66;;;6.25;76.41
62600;BME280;48671;48.922;2.346;2023-01-30T07:43:51;102370.06;;;6.25;76.41
62600;BME280;48671;48.922;2.346;2023-01-30T07:46:16;102370.06;;;6.25;76.82
62600;BME280;48671;48.922;2.346;2023-01-30T07:48:43;102370.06;;;6.25;76.38
62600;BME280;48671;48.922;2.346;2023-01-30T07:51:09;102354.56;;;6.22;76.71
62600;BME280;48671;48.922;2.346;2023-01-30T07:53:34;102363.13;;;6.21;77.07
62600;BME280;48671;48.922;2.346;2023-01-30T07:56:05;102361.44;;;6.23;76.83
62600;BME280;48671;48.922;2.346;2023-01-30T07:58:31;102365.75;;;6.24;76.79
62600;BME280;48671;48.922;2.346;2023-01-30T08:00:56;102362.31;;;6.25;77.55
62600;BME280;48671;48.922;2.346;2023-01-30T08:03:21;102351.09;;;6.23;77.45
62600;BME280;48671;48.922;2.346;2023-01-30T08:05:47;102351.94;;;6.20;78.06
62600;BME280;48671;48.922;2.346;2023-01-30T08:08:13;102354.53;;;6.20;77.64
62600;BME280;48671;48.922;2.346;2023-01-30T08:10:38;102359.69;;;6.20;77.94
62600;BME280;48671;48.922;2.346;2023-01-30T08:13:03;102357.13;;;6.22;77.33
62600;BME280;48671;48.922;2.346;2023-01-30T08:15:29;102362.28;;;6.20;78.30
62600;BME280;48671;48.922;2.346;2023-01-30T08:17:57;102364.00;;;6.24;77.64
62600;BME280;48671;48.922;2.346;2023-01-30T08:20:23;102363.16;;;6.24;77.72
62600;BME280;48671;48.922;2.346;2023-01-30T08:22:49;102367.50;;;6.28;77.77
62600;BME280;48671;48.922;2.346;2023-01-30T08:25:14;102370.09;;;6.28;77.70
62600;BME280;48671;48.922;2.346;2023-01-30T08:27:40;102377.84;;;6.29;77.80
62600;BME280;48671;48.922;2.346;2023-01-30T08:30:06;102371.84;;;6.35;77.40
62600;BME280;48671;48.922;2.346;2023-01-30T08:32:32;102370.97;;;6.33;77.21
62600;BME280;48671;48.922;2.346;2023-01-30T08:34:57;102370.97;;;6.36;77.50
62600;BME280;48671;48.922;2.346;2023-01-30T08:37:22;102375.28;;;6.37;77.05
62600;BME280;48671;48.922;2.346;2023-01-30T08:39:48;102363.19;;;6.27;77.37
62600;BME280;48671;48.922;2.346;2023-01-30T08:42:16;102361.47;;;6.30;77.57
62600;BME280;48671;48.922;2.346;2023-01-30T08:44:47;102384.81;;;6.41;77.60
62600;BME280;48671;48.922;2.346;2023-01-30T08:47:12;102372.72;;;6.36;77.59
62600;BME280;48671;48.922;2.346;2023-01-30T08:49:37;102384.81;;;6.46;77.25
62600;BME280;48671;48.922;2.346;2023-01-30T08:52:03;102370.13;;;6.36;77.24
62600;BME280;48671;48.922;2.346;2023-01-30T08:54:28;102369.31;;;6.41;77.14
62600;BME280;48671;48.922;2.346;2023-01-30T08:56:54;102375.34;;;6.42;76.82
62600;BME280;48671;48.922;2.346;2023-01-30T08:59:19;102383.09;;;6.45;76.77
62600;BME280;48671;48.922;2.346;2023-01-30T09:01:44;102404.69;;;6.56;77.14
62600;BME280;48671;48.922;2.346;2023-01-30T09:04:10;102381.38;;;6.42;76.90
62600;BME280;48671;48.922;2.346;2023-01-30T09:06:35;102396.03;;;6.49;76.85
62600;BME280;48671;48.922;2.346;2023-01-30T09:09:03;102397.75;;;6.50;77.05
62600;BME280;48671;48.922;2.346;2023-01-30T09:11:45;102391.75;;;6.48;76.76
62600;BME280;48671;48.922;2.346;2023-01-30T09:14:25;102387.44;;;6.53;76.66
62600;BME280;48671;48.922;2.346;2023-01-30T09:17:03;102396.09;;;6.60;76.66
62600;BME280;48671;48.922;2.346;2023-01-30T09:19:59;102409.91;;;6.67;77.22
62600;BME280;48671;48.922;2.346;2023-01-30T09:22:31;102386.59;;;6.54;76.94
62600;BME280;48671;48.922;2.346;2023-01-30T09:25:11;102404.75;;;6.65;76.76
62600;BME280;48671;48.922;2.346;2023-01-30T09:27:54;102390.91;;;6.55;76.88
62600;BME280;48671;48.922;2.346;2023-01-30T09:30:19;102405.63;;;6.67;76.88
62600;BME280;48671;48.922;2.346;2023-01-30T09:32:45;102396.97;;;6.61;77.42
62600;BME280;48671;48.922;2.346;2023-01-30T09:35:11;102420.28;;;6.70;77.34
62600;BME280;48671;48.922;2.346;2023-01-30T09:37:36;102403.88;;;6.66;76.94
62600;BME280;48671;48.922;2.346;2023-01-30T09:40:02;102393.53;;;6.65;76.86
62600;BME280;48671;48.922;2.346;2023-01-30T09:45:36;102409.13;;;6.82;76.54
62600;BME280;48671;48.922;2.346;2023-01-30T09:48:05;102398.75;;;6.80;77.21
62600;BME280;48671;48.922;2.346;2023-01-30T09:55:42;102396.22;;;6.85;77.58
62600;BME280;48671;48.922;2.346;2023-01-30T09:58:22;102413.47;;;6.92;77.17
62600;BME280;48671;48.922;2.346;2023-01-30T10:00:51;102407.44;;;6.88;77.65
62600;BME280;48671;48.922;2.346;2023-01-30T10:07:34;102429.03;;;6.95;77.66
62600;BME280;48671;48.922;2.346;2023-01-30T10:15:27;102432.50;;;7.01;77.75
62600;BME280;48671;48.922;2.346;2023-01-30T10:28:05;102433.38;;;7.08;78.28
62600;BME280;48671;48.922;2.346;2023-01-30T10:30:39;102446.34;;;7.19;77.95
62600;BME280;48671;48.922;2.346;2023-01-30T10:33:36;102454.16;;;7.23;77.72
62600;BME280;48671;48.922;2.346;2023-01-30T10:36:39;102426.50;;;7.18;77.66
62600;BME280;48671;48.922;2.346;2023-01-30T10:41:57;102404.94;;;7.28;77.35
62600;BME280;48671;48.922;2.346;2023-01-30T10:44:26;102392.84;;;7.18;78.18
62600;BME280;48671;48.922;2.346;2023-01-30T10:49:53;102382.50;;;7.24;77.26
62600;BME280;48671;48.922;2.346;2023-01-30T11:00:31;102383.41;;;7.41;77.66
62600;BME280;48671;48.922;2.346;2023-01-30T11:10:18;102415.38;;;7.63;78.16
62600;BME280;48671;48.922;2.346;2023-01-30T11:12:47;102396.34;;;7.55;77.76
62600;BME280;48671;48.922;2.346;2023-01-30T11:15:39;102404.13;;;7.57;77.46
62600;BME280;48671;48.922;2.346;2023-01-30T11:18:07;102420.56;;;7.76;77.66
62600;BME280;48671;48.922;2.346;2023-01-30T11:20:39;102410.19;;;7.80;77.15
62600;BME280;48671;48.922;2.346;2023-01-30T11:23:08;102402.44;;;7.76;77.62
62600;BME280;48671;48.922;2.346;2023-01-30T11:25:54;102410.19;;;7.88;77.34
62600;BME280;48671;48.922;2.346;2023-01-30T11:28:21;102414.53;;;7.92;77.27
62600;BME280;48671;48.922;2.346;2023-01-30T11:30:56;102418.81;;;7.94;76.79
62600;BME280;48671;48.922;2.346;2023-01-30T11:33:31;102394.63;;;7.88;76.93
62600;BME280;48671;48.922;2.346;2023-01-30T11:36:24;102370.47;;;7.83;76.69
62600;BME280;48671;48.922;2.346;2023-01-30T11:39:17;102374.78;;;7.88;76.91
62600;BME280;48671;48.922;2.346;2023-01-30T11:41:59;102387.72;;;7.97;77.03
62600;BME280;48671;48.922;2.346;2023-01-30T11:44:53;102379.06;;;8.00;76.98
62600;BME280;48671;48.922;2.346;2023-01-30T11:47:28;102386.88;;;8.05;77.32
62600;BME280;48671;48.922;2.346;2023-01-30T11:50:00;102375.59;;;8.07;77.42
62600;BME280;48671;48.922;2.346;2023-01-30T11:52:45;102358.34;;;7.97;76.84
62600;BME280;48671;48.922;2.346;2023-01-30T11:55:27;102378.22;;;8.09;76.87
62600;BME280;48671;48.922;2.346;2023-01-30T11:58:06;102382.50;;;8.16;77.07
62600;BME280;48671;48.922;2.346;2023-01-30T12:03:53;102364.38;;;8.11;76.75
62600;BME280;48671;48.922;2.346;2023-01-30T12:06:24;102371.25;;;8.23;77.06
62600;BME280;48671;48.922;2.346;2023-01-30T12:08:56;102360.03;;;8.19;76.61
62600;BME280;48671;48.922;2.346;2023-01-30T12:11:52;102340.16;;;8.11;76.79
62600;BME280;48671;48.922;2.346;2023-01-30T12:14:39;102345.31;;;8.20;76.92
62600;BME280;48671;48.922;2.346;2023-01-30T12:17:15;102324.59;;;8.18;77.10
62600;BME280;48671;48.922;2.346;2023-01-30T12:20:04;102358.25;;;8.35;76.77
62600;BME280;48671;48.922;2.346;2023-01-30T12:26:04;102358.25;;;8.40;76.88
62600;BME280;48671;48.922;2.346;2023-01-30T12:28:54;102340.13;;;8.38;76.94
62600;BME280;48671;48.922;2.346;2023-01-30T12:33:55;102321.97;;;8.38;76.84
62600;BME280;48671;48.922;2.346;2023-01-30T12:36:34;102327.97;;;8.47;76.97
62600;BME280;48671;48.922;2.346;2023-01-30T12:51:00;102316.72;;;8.55;77.03
62600;BME280;48671;48.922;2.346;2023-01-30T12:53:58;102312.38;;;8.53;76.83
62600;BME280;48671;48.922;2.346;2023-01-30T12:56:56;102308.94;;;8.52;77.27
62600;BME280;48671;48.922;2.346;2023-01-30T12:59:25;102317.56;;;8.57;77.57
62600;BME280;48671;48.922;2.346;2023-01-30T13:02:19;102313.22;;;8.61;77.47
62600;BME280;48671;48.922;2.346;2023-01-30T13:10:17;102287.28;;;8.64;77.06
62600;BME280;48671;48.922;2.346;2023-01-30T13:15:42;102296.69;;;8.83;76.82
62600;BME280;48671;48.922;2.346;2023-01-30T13:18:14;102291.47;;;8.86;76.72
62600;BME280;48671;48.922;2.346;2023-01-30T15:05:07;102314.97;;;9.79;75.14
62600;BME280;48671;48.922;2.346;2023-01-30T15:07:49;102330.19;;;10.13;75.28
62600;BME280;48671;48.922;2.346;2023-01-30T15:16:45;102343.31;;;10.79;73.40
62600;BME280;48671;48.922;2.346;2023-01-30T15:19:21;102353.63;;;10.85;72.63
62600;BME280;48671;48.922;2.346;2023-01-30T15:24:44;102339.25;;;10.57;72.50
62600;BME280;48671;48.922;2.346;2023-01-30T15:27:37;102359.22;;;10.54;72.58
62600;BME280;48671;48.922;2.346;2023-01-30T15:30:39;102369.69;;;10.51;72.35
62600;BME280;48671;48.922;2.346;2023-01-30T15:33:18;102376.72;;;10.42;72.75
62600;BME280;48671;48.922;2.346;2023-01-30T15:36:15;102369.09;;;10.28;72.59
62600;BME280;48671;48.922;2.346;2023-01-30T15:39:17;102363.19;;;10.11;72.40
62600;BME280;48671;48.922;2.346;2023-01-30T15:41:43;102377.00;;;10.14;72.12
62600;BME280;48671;48.922;2.346;2023-01-30T15:52:17;102395.41;;;9.93;69.63
62600;BME280;48671;48.922;2.346;2023-01-30T15:54:49;102374.75;;;9.79;69.31
62600;BME280;48671;48.922;2.346;2023-01-30T15:57:25;102377.38;;;9.74;67.98
62600;BME280;48671;48.922;2.346;2023-01-30T15:59:55;102393.81;;;9.81;68.59
62600;BME280;48671;48.922;2.346;2023-01-30T16:02:33;102403.31;;;9.82;68.16
62600;BME280;48671;48.922;2.346;2023-01-30T16:05:19;102386.94;;;9.71;68.30
62600;BME280;48671;48.922;2.346;2023-01-30T16:07:48;102412.88;;;9.78;67.99
62600;BME280;48671;48.922;2.346;2023-01-30T16:10:25;102406.88;;;9.67;67.98
62600;BME280;48671;48.922;2.346;2023-01-30T16:12:53;102407.75;;;9.69;68.07
62600;BME280;48671;48.922;2.346;2023-01-30T16:15:39;102408.56;;;9.73;67.97
62600;BME280;48671;48.922;2.346;2023-01-30T16:20:55;102382.81;;;9.48;66.67
62600;BME280;48671;48.922;2.346;2023-01-30T16:25:54;102401.03;;;9.42;66.85
62600;BME280;48671;48.922;2.346;2023-01-30T16:28:25;102412.28;;;9.43;67.00
62600;BME280;48671;48.922;2.346;2023-01-30T16:31:04;102418.34;;;9.40;66.80
62600;BME280;48671;48.922;2.346;2023-01-30T16:33:34;102429.63;;;9.37;66.86
62600;BME280;48671;48.922;2.346;2023-01-30T16:36:04;102423.63;;;9.28;66.49
62600;BME280;48671;48.922;2.346;2023-01-30T16:38:36;102446.13;;;9.29;66.55
62600;BME280;48671;48.922;2.346;2023-01-30T16:41:02;102454.75;;;9.31;66.79
62600;BME280;48671;48.922;2.346;2023-01-30T16:43:29;102466.91;;;9.32;66.67
62600;BME280;48671;48.922;2.346;2023-01-30T16:49:01;102460.94;;;9.13;67.05
62600;BME280;48671;48.922;2.346;2023-01-30T16:51:28;102488.59;;;9.23;66.57
62600;BME280;48671;48.922;2.346;2023-01-30T16:54:01;102492.03;;;9.21;66.89
62600;BME280;48671;48.922;2.346;2023-01-30T16:56:29;102480.84;;;9.12;66.85
62600;BME280;48671;48.922;2.346;2023-01-30T16:58:58;102480.03;;;9.03;66.42
62600;BME280;48671;48.922;2.346;2023-01-30T17:01:39;102478.28;;;8.99;66.38
62600;BME280;48671;48.922;2.346;2023-01-30T17:04:13;102501.66;;;9.00;66.72
62600;BME280;48671;48.922;2.346;2023-01-30T17:06:40;102505.16;;;8.93;66.33
62600;BME280;48671;48.922;2.346;2023-01-30T17:11:56;102512.06;;;8.91;66.27
62600;BME280;48671;48.922;2.346;2023-01-30T17:14:24;102519.00;;;8.87;66.12
62600;BME280;48671;48.922;2.346;2023-01-30T17:17:03;102512.97;;;8.78;66.00
62600;BME280;48671;48.922;2.346;2023-01-30T17:19:33;102519.03;;;8.77;66.20
62600;BME280;48671;48.922;2.346;2023-01-30T17:22:01;102539.75;;;8.86;66.19
62600;BME280;48671;48.922;2.346;2023-01-30T17:24:27;102518.16;;;8.72;65.96